createdAt,value
2018-06-28T00:01:18.158Z,92.60
2018-06-28T00:03:47.903Z,92.40
2018-06-28T00:06:19.490Z,92.30
2018-06-28T00:08:48.505Z,92.00
2018-06-28T00:11:17.445Z,92.00
2018-06-28T00:13:47.900Z,92.30
2018-06-28T00:16:16.850Z,92.50
2018-06-28T00:18:45.971Z,92.50
2018-06-28T00:21:14.959Z,92.60
2018-06-28T00:23:43.903Z,92.30
2018-06-28T00:26:12.999Z,92.10
2018-06-28T00:28:41.950Z,92.40
2018-06-28T00:31:10.974Z,92.60
2018-06-28T00:33:39.929Z,93.10
2018-06-28T00:36:08.903Z,93.00
2018-06-28T00:38:37.867Z,93.00
2018-06-28T00:41:06.858Z,92.80
2018-06-28T00:43:36.533Z,92.30
2018-06-28T00:46:05.481Z,92.50
2018-06-28T00:48:34.806Z,92.70
2018-06-28T00:51:04.513Z,93.40
2018-06-28T00:53:33.936Z,93.30
2018-06-28T00:56:03.336Z,93.20
2018-06-28T00:58:33.720Z,93.40
2018-06-28T01:01:02.673Z,93.90
2018-06-28T01:03:32.326Z,94.20
2018-06-28T01:06:01.765Z,94.50
2018-06-28T01:08:30.715Z,93.80
2018-06-28T01:10:59.678Z,93.00
2018-06-28T01:13:28.626Z,93.00
2018-06-28T01:15:57.616Z,93.20
2018-06-28T01:18:26.571Z,93.60
2018-06-28T01:20:55.557Z,93.60
2018-06-28T01:23:24.531Z,93.80
2018-06-28T01:25:53.895Z,93.70
2018-06-28T01:28:22.842Z,93.70
2018-06-28T01:30:53.448Z,93.60
2018-06-28T01:33:22.524Z,93.40
2018-06-28T01:35:51.665Z,93.20
2018-06-28T01:38:20.643Z,93.10
2018-06-28T01:40:49.603Z,93.30
2018-06-28T01:43:34.630Z,93.40
2018-06-28T01:46:03.599Z,92.90
2018-06-28T01:48:32.560Z,93.40
2018-06-28T01:51:01.622Z,93.70
2018-06-28T01:53:32.280Z,94.20
2018-06-28T01:56:01.232Z,94.20
2018-06-28T01:58:30.199Z,93.80
2018-06-28T02:00:59.964Z,93.30
2018-06-28T02:03:28.927Z,93.10
2018-06-28T02:05:57.879Z,93.10
2018-06-28T02:08:26.876Z,93.40
2018-06-28T02:10:55.821Z,93.40
2018-06-28T02:13:24.799Z,93.40
2018-06-28T02:15:53.758Z,93.50
2018-06-28T02:18:22.894Z,92.80
2018-06-28T02:20:53.069Z,92.70
2018-06-28T02:23:22.137Z,93.20
2018-06-28T02:25:51.078Z,93.60
2018-06-28T02:28:20.025Z,93.80
2018-06-28T02:30:49.362Z,93.80
2018-06-28T02:33:18.330Z,93.40
2018-06-28T02:35:48.178Z,93.30
2018-06-28T02:38:17.151Z,93.30
2018-06-28T02:40:46.114Z,93.70
2018-06-28T02:43:15.099Z,93.30
2018-06-28T02:45:44.039Z,93.70
2018-06-28T02:48:12.997Z,93.90
2018-06-28T02:50:41.955Z,94.80
2018-06-28T02:53:10.966Z,94.60
2018-06-28T02:55:39.911Z,94.40
2018-06-28T02:58:08.904Z,93.90
2018-06-28T03:00:38.907Z,93.80
2018-06-28T03:03:07.947Z,94.00
2018-06-28T03:05:36.883Z,93.60
2018-06-28T03:08:06.663Z,93.90
2018-06-28T03:10:35.603Z,94.30
2018-06-28T03:13:04.599Z,94.20
2018-06-28T03:15:33.559Z,94.20
2018-06-28T03:18:02.581Z,94.50
2018-06-28T03:20:31.537Z,94.80
2018-06-28T03:23:00.535Z,94.70
2018-06-28T03:25:30.906Z,94.40
2018-06-28T03:28:01.244Z,94.10
2018-06-28T03:30:30.223Z,94.50
2018-06-28T03:32:59.235Z,95.10
2018-06-28T03:35:28.206Z,95.30
2018-06-28T03:37:57.408Z,94.80
2018-06-28T03:40:26.167Z,94.20
2018-06-28T03:42:55.119Z,94.10
2018-06-28T03:45:24.070Z,94.20
2018-06-28T03:47:53.050Z,94.20
2018-06-28T03:50:22.563Z,94.30
2018-06-28T03:52:51.549Z,94.60
2018-06-28T03:55:20.543Z,94.70
2018-06-28T03:57:50.057Z,94.90
2018-06-28T04:00:20.801Z,95.20
2018-06-28T04:02:52.113Z,95.50
2018-06-28T04:05:21.066Z,95.60
2018-06-28T04:07:50.049Z,95.20
2018-06-28T04:10:19.020Z,94.60
2018-06-28T04:12:47.999Z,94.60
2018-06-28T04:15:16.961Z,94.40
2018-06-28T04:17:45.944Z,94.10
2018-06-28T04:20:14.948Z,94.00
2018-06-28T04:22:43.941Z,94.50
2018-06-28T04:25:12.920Z,94.60
2018-06-28T04:27:41.952Z,94.80
2018-06-28T04:30:11.480Z,94.90
2018-06-28T04:32:41.454Z,94.90
2018-06-28T04:35:10.447Z,95.10
2018-06-28T04:37:39.410Z,95.20
2018-06-28T04:40:08.410Z,94.60
2018-06-28T04:42:37.384Z,94.70
2018-06-28T04:45:06.471Z,95.10
2018-06-28T04:47:35.486Z,95.30
2018-06-28T04:50:04.492Z,94.70
2018-06-28T04:52:33.839Z,94.90
2018-06-28T04:55:03.809Z,94.80
2018-06-28T04:57:32.944Z,94.70
2018-06-28T05:00:02.357Z,95.00
2018-06-28T05:02:32.048Z,94.60
2018-06-28T05:05:02.611Z,94.70
2018-06-28T05:07:31.780Z,94.50
2018-06-28T05:10:00.981Z,94.50
2018-06-28T05:12:32.375Z,94.40
2018-06-28T05:15:01.864Z,94.30
2018-06-28T05:17:30.985Z,94.10
2018-06-28T05:20:00.154Z,93.70
2018-06-28T05:22:29.557Z,93.20
2018-06-28T05:24:58.575Z,93.00
2018-06-28T05:27:28.547Z,92.70
2018-06-28T05:29:57.532Z,92.80
2018-06-28T05:32:27.630Z,92.80
2018-06-28T05:37:25.249Z,92.90
2018-06-28T05:39:54.232Z,93.10
2018-06-28T05:42:23.583Z,93.00
2018-06-28T05:44:52.555Z,92.90
2018-06-28T05:47:21.550Z,93.30
2018-06-28T05:49:53.775Z,93.00
2018-06-28T05:52:24.131Z,92.80
2018-06-28T05:54:53.135Z,92.60
2018-06-28T05:57:22.106Z,92.40
2018-06-28T05:59:51.105Z,92.30
2018-06-28T06:02:20.053Z,92.30
2018-06-28T06:04:49.032Z,92.30
2018-06-28T06:07:18.736Z,92.40
2018-06-28T06:09:47.765Z,92.00
2018-06-28T06:12:16.727Z,91.80
2018-06-28T06:14:47.102Z,91.90
2018-06-28T06:17:16.078Z,91.70
2018-06-28T06:19:45.136Z,91.50
2018-06-28T06:22:14.107Z,91.20
2018-06-28T06:24:43.085Z,91.20
2018-06-28T06:27:12.048Z,91.50
2018-06-28T06:29:41.069Z,91.30
2018-06-28T06:32:10.202Z,91.20
2018-06-28T06:34:39.164Z,91.20
2018-06-28T06:37:08.131Z,90.80
2018-06-28T06:39:37.074Z,90.90
2018-06-28T06:42:06.047Z,90.30
2018-06-28T06:44:35.682Z,90.00
2018-06-28T06:47:08.744Z,90.10
2018-06-28T06:49:37.699Z,90.10
2018-06-28T06:52:06.712Z,89.70
2018-06-28T06:54:35.663Z,90.00
2018-06-28T06:57:04.949Z,89.70
2018-06-28T06:59:36.043Z,89.10
2018-06-28T07:02:05.689Z,88.90
2018-06-28T07:04:34.889Z,89.50
2018-06-28T07:07:04.887Z,89.00
2018-06-28T07:09:35.728Z,89.30
2018-06-28T07:12:04.924Z,89.30
2018-06-28T07:14:34.122Z,90.00
2018-06-28T07:17:03.344Z,89.50
2018-06-28T07:19:32.541Z,89.40
2018-06-28T07:22:01.771Z,89.10
2018-06-28T07:27:00.068Z,87.30
2018-06-28T07:29:29.257Z,87.20
2018-06-28T07:31:58.485Z,86.90
2018-06-28T07:34:30.442Z,87.20
2018-06-28T07:37:01.474Z,86.90
2018-06-28T07:39:30.686Z,86.60
2018-06-28T07:41:59.909Z,84.40
2018-06-28T07:44:29.096Z,83.90
2018-06-28T07:46:58.372Z,83.40
2018-06-28T07:49:28.032Z,82.60
2018-06-28T07:51:57.214Z,80.60
2018-06-28T07:54:27.079Z,76.80
2018-06-28T07:56:56.300Z,73.80
2018-06-28T07:59:30.401Z,68.70
2018-06-28T08:02:00.306Z,64.80
2018-06-28T08:04:33.637Z,58.50
2018-06-28T08:07:04.264Z,54.00
2018-06-28T08:09:33.902Z,48.20
2018-06-28T08:14:37.369Z,40.80
2018-06-28T08:17:08.512Z,39.00
2018-06-28T08:19:41.710Z,38.80
2018-06-28T08:22:11.315Z,38.70
2018-06-28T08:24:41.478Z,37.50
2018-06-28T08:27:11.020Z,36.00
2018-06-28T08:34:46.616Z,60.30
2018-06-28T08:37:22.460Z,41.30
2018-06-28T08:39:58.348Z,44.50
2018-06-28T08:42:34.029Z,45.80
2018-06-28T08:45:05.161Z,47.20
2018-06-28T08:47:36.281Z,49.30
2018-06-28T08:50:05.565Z,50.90
2018-06-28T08:52:35.054Z,52.50
2018-06-28T08:57:33.103Z,52.30
2018-06-28T09:00:02.084Z,53.50
2018-06-28T09:02:31.051Z,53.50
2018-06-28T09:05:00.809Z,53.80
2018-06-28T09:07:30.158Z,54.10
2018-06-28T09:09:59.127Z,54.20
2018-06-28T09:12:31.873Z,54.80
2018-06-28T09:15:00.853Z,55.50
2018-06-28T09:17:30.691Z,56.50
2018-06-28T09:20:00.107Z,56.80
2018-06-28T09:22:32.700Z,56.30
2018-06-28T09:25:01.643Z,55.20
2018-06-28T09:27:31.047Z,55.20
2018-06-28T09:29:59.999Z,54.70
2018-06-28T09:32:29.059Z,54.50
2018-06-28T09:34:58.023Z,54.30
2018-06-28T09:37:30.582Z,54.10
2018-06-28T09:40:00.500Z,53.90
2018-06-28T09:42:30.675Z,54.10
2018-06-28T09:44:59.642Z,53.10
2018-06-28T09:47:28.634Z,52.10
2018-06-28T09:49:57.587Z,51.30
2018-06-28T09:52:26.542Z,48.60
2018-06-28T09:54:56.318Z,47.50
2018-06-28T10:12:18.909Z,42.10
2018-06-28T10:14:48.593Z,42.50
2018-06-28T10:17:18.329Z,44.60
2018-06-28T10:19:47.323Z,44.90
2018-06-28T10:22:16.390Z,47.20
2018-06-28T10:24:46.117Z,45.50
2018-06-28T10:27:15.530Z,46.60
2018-06-28T10:29:44.553Z,46.60
2018-06-28T10:32:13.505Z,46.40
2018-06-28T10:34:42.787Z,45.90
2018-06-28T10:37:13.281Z,43.60
2018-06-28T10:39:44.208Z,41.40
2018-06-28T10:42:13.933Z,39.50
2018-06-28T10:44:42.919Z,41.40
2018-06-28T10:47:14.356Z,43.70
2018-06-28T10:49:43.611Z,44.80
2018-06-28T10:52:14.136Z,46.90
2018-06-28T10:54:43.868Z,49.10
2018-06-28T10:57:12.839Z,49.40
2018-06-28T10:59:41.816Z,50.40
2018-06-28T11:02:10.766Z,51.20
2018-06-28T11:04:47.214Z,52.20
2018-06-28T11:07:18.008Z,52.00
2018-06-28T11:09:46.984Z,53.50
2018-06-28T11:12:15.949Z,54.70
2018-06-28T11:14:44.918Z,54.80
2018-06-28T11:17:13.884Z,54.60
2018-06-28T11:19:42.994Z,54.90
2018-06-28T11:22:12.110Z,54.20
2018-06-28T11:24:41.039Z,54.90
2018-06-28T11:27:11.237Z,54.80
2018-06-28T11:29:41.283Z,54.30
2018-06-28T11:32:10.273Z,55.00
2018-06-28T11:34:39.242Z,54.90
2018-06-28T11:37:08.210Z,56.60
2018-06-28T11:39:46.586Z,56.00
2018-06-28T11:42:17.110Z,56.30
2018-06-28T11:44:46.467Z,54.40
2018-06-28T11:47:16.710Z,54.70
2018-06-28T11:49:47.674Z,55.90
2018-06-28T11:52:17.487Z,56.60
2018-06-28T11:54:46.475Z,55.70
2018-06-28T11:57:15.416Z,55.10
2018-06-28T11:59:44.902Z,55.50
2018-06-28T12:02:13.914Z,56.10
2018-06-28T12:04:43.961Z,56.30
2018-06-28T12:07:12.935Z,56.20
2018-06-28T12:09:41.902Z,56.20
2018-06-28T12:12:10.927Z,55.40
2018-06-28T12:14:40.839Z,57.50
2018-06-28T12:17:10.959Z,54.50
2018-06-28T12:19:39.938Z,92.90
2018-06-28T12:22:10.727Z,77.20
2018-06-28T12:24:39.662Z,55.40
2018-06-28T12:27:08.639Z,55.40
2018-06-28T12:29:37.705Z,55.30
2018-06-28T12:32:07.970Z,55.40
2018-06-28T12:34:38.122Z,55.80
2018-06-28T12:37:09.027Z,54.30
2018-06-28T12:39:37.970Z,62.40
2018-06-28T12:42:06.974Z,54.90
2018-06-28T12:44:35.969Z,55.30
2018-06-28T12:47:45.949Z,55.60
2018-06-28T12:50:15.498Z,56.10
2018-06-28T12:52:53.362Z,55.80
2018-06-28T12:55:22.789Z,69.20
2018-06-28T12:57:59.923Z,55.40
2018-06-28T13:00:29.304Z,54.90
2018-06-28T13:03:00.212Z,55.00
2018-06-28T13:05:31.733Z,55.40
2018-06-28T13:08:04.298Z,55.00
2018-06-28T13:10:33.254Z,55.10
2018-06-28T13:13:02.247Z,55.00
2018-06-28T13:15:31.773Z,54.80
2018-06-28T13:18:01.131Z,53.50
2018-06-28T13:20:30.758Z,54.50
2018-06-28T13:22:59.720Z,53.90
2018-06-28T13:25:29.398Z,54.30
2018-06-28T13:27:58.397Z,54.20
2018-06-28T13:30:27.361Z,54.10
2018-06-28T13:33:00.172Z,53.60
2018-06-28T13:37:58.940Z,52.30
2018-06-28T13:40:33.976Z,53.40
2018-06-28T13:43:02.977Z,54.00
2018-06-28T13:45:36.751Z,53.60
2018-06-28T13:48:05.975Z,53.50
2018-06-28T13:50:36.545Z,52.90
2018-06-28T13:53:06.124Z,52.30
2018-06-28T13:55:35.071Z,52.50
2018-06-28T13:58:04.694Z,52.80
2018-06-28T14:00:33.639Z,52.70
2018-06-28T14:03:02.638Z,52.90
2018-06-28T14:05:31.568Z,53.80
2018-06-28T14:08:00.957Z,55.00
2018-06-28T14:10:32.541Z,55.00
2018-06-28T14:13:01.537Z,54.00
2018-06-28T14:15:31.355Z,54.60
2018-06-28T14:18:00.333Z,54.70
2018-06-28T14:20:30.720Z,53.50
2018-06-28T14:22:59.639Z,52.00
2018-06-28T14:25:29.443Z,52.40
2018-06-28T14:27:58.507Z,52.50
2018-06-28T14:30:28.251Z,52.40
2018-06-28T14:32:57.266Z,52.90
2018-06-28T14:35:26.223Z,53.00
2018-06-28T14:37:55.188Z,52.40
2018-06-28T14:40:24.138Z,52.80
2018-06-28T14:42:55.203Z,52.00
2018-06-28T14:45:24.124Z,52.20
2018-06-28T14:47:53.090Z,52.60
2018-06-28T14:52:51.703Z,50.50
2018-06-28T14:55:23.427Z,52.20
2018-06-28T14:57:57.958Z,50.80
2018-06-28T15:00:26.903Z,71.00
2018-06-28T15:02:55.864Z,51.50
2018-06-28T15:05:24.804Z,51.70
2018-06-28T15:07:53.814Z,51.80
2018-06-28T15:10:22.792Z,50.80
2018-06-28T15:12:53.212Z,50.80
2018-06-28T15:15:22.213Z,51.00
2018-06-28T15:17:54.439Z,52.20
2018-06-28T15:20:24.734Z,51.50
2018-06-28T15:22:53.656Z,51.10
2018-06-28T15:25:22.617Z,50.80
2018-06-28T15:27:51.596Z,51.00
2018-06-28T15:30:20.581Z,49.70
2018-06-28T15:32:49.677Z,50.80
2018-06-28T15:35:18.920Z,50.70
2018-06-28T15:37:48.998Z,51.00
2018-06-28T15:40:17.986Z,51.00
2018-06-28T15:42:46.919Z,51.40
2018-06-28T15:45:15.903Z,52.50
2018-06-28T15:47:44.830Z,52.70
2018-06-28T15:50:15.601Z,55.90
2018-06-28T15:52:44.665Z,51.90
2018-06-28T15:55:14.040Z,52.20
2018-06-28T15:57:44.728Z,52.50
2018-06-28T16:00:13.732Z,52.90
2018-06-28T16:02:42.722Z,53.40
2018-06-28T16:05:11.698Z,53.60
2018-06-28T16:07:42.870Z,53.90
2018-06-28T16:10:11.946Z,53.40
2018-06-28T16:12:41.138Z,53.50
2018-06-28T16:15:11.340Z,53.40
2018-06-28T16:17:40.358Z,53.40
2018-06-28T16:20:09.761Z,52.60
2018-06-28T16:22:38.887Z,52.20
2018-06-28T16:25:08.052Z,52.80
2018-06-28T16:27:37.518Z,52.60
2018-06-28T16:30:06.764Z,52.50
2018-06-28T16:32:35.714Z,51.90
2018-06-28T16:35:05.011Z,52.70
2018-06-28T16:37:33.993Z,51.20
2018-06-28T16:40:03.529Z,51.90
2018-06-28T16:42:33.509Z,51.80
2018-06-28T16:45:02.686Z,50.80
2018-06-28T16:47:31.639Z,51.30
2018-06-28T16:50:00.606Z,50.40
2018-06-28T16:54:59.125Z,49.70
2018-06-28T16:57:28.100Z,51.10
2018-06-28T16:59:57.053Z,52.20
2018-06-28T17:02:26.500Z,54.40
2018-06-28T17:04:56.274Z,50.90
2018-06-28T17:07:25.235Z,51.20
2018-06-28T17:09:54.186Z,51.70
2018-06-28T17:12:23.154Z,51.10
2018-06-28T17:14:52.117Z,51.70
2018-06-28T17:17:21.132Z,51.40
2018-06-28T17:19:50.126Z,51.60
2018-06-28T17:22:20.037Z,52.00
2018-06-28T17:24:48.998Z,51.20
2018-06-28T17:29:46.766Z,49.80
2018-06-28T17:32:15.887Z,51.00
2018-06-28T17:34:44.854Z,50.20
2018-06-28T17:37:14.474Z,50.20
2018-06-28T17:39:46.205Z,50.50
2018-06-28T17:42:20.754Z,50.80
2018-06-28T17:44:50.878Z,51.50
2018-06-28T17:47:19.890Z,50.90
2018-06-28T17:49:50.335Z,52.50
2018-06-28T17:52:19.276Z,52.30
2018-06-28T17:54:48.320Z,51.60
2018-06-28T17:57:17.682Z,52.10
2018-06-28T17:59:47.034Z,52.30
2018-06-28T18:02:16.010Z,52.20
2018-06-28T18:04:44.955Z,52.70
2018-06-28T18:07:13.927Z,52.10
2018-06-28T18:09:42.893Z,52.60
2018-06-28T18:12:11.875Z,52.60
2018-06-28T18:14:43.557Z,52.60
2018-06-28T18:17:12.581Z,52.90
2018-06-28T18:19:41.611Z,52.40
2018-06-28T18:22:10.562Z,52.40
2018-06-28T18:24:39.913Z,52.70
2018-06-28T18:27:08.911Z,52.60
2018-06-28T18:29:39.322Z,53.20
2018-06-28T18:32:08.316Z,53.40
2018-06-28T18:34:37.268Z,53.60
2018-06-28T18:37:07.513Z,54.10
2018-06-28T18:39:36.468Z,53.50
2018-06-28T18:42:05.571Z,53.80
2018-06-28T18:44:34.513Z,54.40
2018-06-28T18:47:04.285Z,54.70
2018-06-28T18:49:33.262Z,54.90
2018-06-28T18:52:02.320Z,55.10
2018-06-28T18:54:31.753Z,55.20
2018-06-28T18:57:02.115Z,55.50
2018-06-28T18:59:32.415Z,56.00
2018-06-28T19:02:02.367Z,56.40
2018-06-28T19:04:32.446Z,56.60
2018-06-28T19:07:02.253Z,56.90
2018-06-28T19:09:36.510Z,57.20
2018-06-28T19:12:05.485Z,57.90
2018-06-28T19:14:41.543Z,57.30
2018-06-28T19:17:10.547Z,57.40
2018-06-28T19:19:40.611Z,57.70
2018-06-28T19:22:14.938Z,58.10
2018-06-28T19:24:43.932Z,58.10
2018-06-28T19:27:14.627Z,58.60
2018-06-28T19:29:50.973Z,58.90
2018-06-28T19:32:31.098Z,59.30
2018-06-28T19:35:01.512Z,59.10
2018-06-28T19:37:38.550Z,59.70
2018-06-28T19:40:14.344Z,60.40
2018-06-28T19:42:48.581Z,61.10
2018-06-28T19:45:17.538Z,61.70
2018-06-28T19:47:46.504Z,62.00
2018-06-28T19:50:22.526Z,62.10
2018-06-28T19:52:59.559Z,62.20
2018-06-28T19:55:29.626Z,62.50
2018-06-28T19:57:59.526Z,63.10
2018-06-28T20:00:33.846Z,63.60
2018-06-28T20:03:08.151Z,64.00
2018-06-28T20:05:37.089Z,64.60
2018-06-28T20:08:06.436Z,64.70
2018-06-28T20:10:35.402Z,65.40
2018-06-28T20:13:09.775Z,65.60
2018-06-28T20:15:53.192Z,65.50
2018-06-28T20:18:27.581Z,65.60
2018-06-28T20:20:57.508Z,65.00
2018-06-28T20:23:33.829Z,64.80
2018-06-28T20:26:11.567Z,64.30
2018-06-28T20:28:46.491Z,63.60
2018-06-28T20:33:24.692Z,63.90
2018-06-28T20:35:53.667Z,62.00
2018-06-28T20:38:31.305Z,60.70
2018-06-28T20:41:00.603Z,60.10
2018-06-28T20:43:29.609Z,59.30
2018-06-28T20:45:58.584Z,58.90
2018-06-28T20:48:27.560Z,58.80
2018-06-28T20:50:56.688Z,58.80
2018-06-28T20:53:26.138Z,59.30
2018-06-28T20:55:55.139Z,59.40
2018-06-28T20:58:25.383Z,59.70
2018-06-28T21:00:55.219Z,59.10
2018-06-28T21:03:24.587Z,59.70
2018-06-28T21:05:54.293Z,58.50
2018-06-28T21:08:24.853Z,59.00
2018-06-28T21:10:54.020Z,59.20
2018-06-28T21:13:25.120Z,59.10
2018-06-28T21:15:56.961Z,58.10
2018-06-28T21:18:25.921Z,57.60
2018-06-28T21:20:55.009Z,58.00
2018-06-28T21:23:25.692Z,57.20
2018-06-28T21:25:54.670Z,57.50
2018-06-28T21:28:25.226Z,57.60
2018-06-28T21:30:54.387Z,57.90
2018-06-28T21:33:23.361Z,57.70
2018-06-28T21:35:52.825Z,57.50
2018-06-28T21:38:22.706Z,57.50
2018-06-28T21:40:52.307Z,57.40
2018-06-28T21:43:21.371Z,57.30
2018-06-28T21:45:50.575Z,57.60
2018-06-28T21:48:20.633Z,57.50
2018-06-28T21:50:49.516Z,57.90
2018-06-28T21:53:20.384Z,58.50
2018-06-28T21:55:49.849Z,58.60
2018-06-28T21:58:18.913Z,58.50
2018-06-28T22:00:54.142Z,58.60
2018-06-28T22:03:25.733Z,58.20
2018-06-28T22:05:58.518Z,59.10
2018-06-28T22:08:27.474Z,59.10
2018-06-28T22:10:57.751Z,59.50
2018-06-28T22:13:27.783Z,59.90
2018-06-28T22:15:56.743Z,60.20
2018-06-28T22:18:25.702Z,61.40
2018-06-28T22:20:54.841Z,60.60
2018-06-28T22:23:26.424Z,61.20
2018-06-28T22:25:57.515Z,60.90
2018-06-28T22:28:26.609Z,61.20
2018-06-28T22:30:55.585Z,61.60
2018-06-28T22:33:24.600Z,61.50
2018-06-28T22:35:53.557Z,61.20
2018-06-28T22:38:22.507Z,61.30
2018-06-28T22:40:51.527Z,61.30
2018-06-28T22:43:20.489Z,61.80
2018-06-28T22:45:54.171Z,62.00
2018-06-28T22:48:23.105Z,62.00
2018-06-28T22:50:52.126Z,62.60
2018-06-28T22:53:22.553Z,62.60
2018-06-28T22:55:51.545Z,63.30
2018-06-28T22:58:20.525Z,63.00
2018-06-28T23:00:50.234Z,63.40
2018-06-28T23:03:19.235Z,63.40
2018-06-28T23:05:49.403Z,63.80
2018-06-28T23:08:18.345Z,64.00
2018-06-28T23:10:47.763Z,63.90
2018-06-28T23:13:18.039Z,64.10
2018-06-28T23:15:47.084Z,63.70
2018-06-28T23:18:15.957Z,63.70
2018-06-28T23:20:44.945Z,64.00
2018-06-28T23:23:13.916Z,63.80
2018-06-28T23:25:43.174Z,63.60
2018-06-28T23:28:12.139Z,63.60
2018-06-28T23:30:42.376Z,63.30
2018-06-28T23:33:11.331Z,63.60
2018-06-28T23:35:40.265Z,65.10
2018-06-28T23:38:09.227Z,66.20
2018-06-28T23:40:38.195Z,65.20
2018-06-28T23:43:07.185Z,65.60
2018-06-28T23:45:36.125Z,66.00
2018-06-28T23:48:05.982Z,65.60
2018-06-28T23:50:34.953Z,65.10
2018-06-28T23:53:03.907Z,65.40
2018-06-28T23:55:33.940Z,65.70
2018-06-28T23:58:02.924Z,65.40
